Terminal Aerodrome Forecast
Issued by NWS

Current Version | Previous Version | Graphics & Text | Print | Product List | Glossary On
Versions: 1 2 3 4 5 6 7 8 9 10 11 12 13 14 15 16 17 18
000
FTUS41 KILN 221133
TAFLUK
TAF
KLUK 221133Z 2212/2312 00000KT 1/2SM FG VV003
     FM221300 00000KT P6SM SKC
     FM221600 VRB03KT P6SM SCT060
     FM230000 00000KT P6SM SKC
     FM230600 00000KT 4SM BR SKC=

USA.gov is the U.S. government's official web portal to all federal, state and local government web resources and services.